Pep, Texas
Current Conditions -  °F | °C
As of 4:53 AM on Thursday 18 Dec 2014 (Local Time) from KLBB Reporting Station
Clear Clear  
Wind Chill: 26°   Ceiling: Unl
Heat Index: 33°   Visibility: 10mi
Dew Point: 30°   Wind: 8mph
Humidity: 89%   Direction: 270°W
Pressure: 30.03"   Gusts: NA
Location:  33.81°N, 102.56°W
Report Text: KLBB 181053Z 27007KT 10SM CLR 01/M01 A3003 RMK AO2 SLP162 T00061011
Loading
Personal Weather Stations






























Interactive Weather Map New forecast layout! Learn more

10-Day Weather Forecast

Advertisements
Track Severe Weather on mobile